Главная страница
METAR-TAF:

METAR-TAF

Аэропорты :

Цзянбэй

Чунцин, Китай

широта: 29-31N, долгота: 106-29E, высота над уровнем моря: 351 м

Текущие метеонаблюдения

Эта сводка был подготовлена 50 минут назад, в 06:00 UTC
Ветер 4 Узел от восточный, изменяющийся между северо-северо-восточный и юго-восточный
Температура 8°C
Влажность 66%
Давление 1024 hPa
Видимость 10 км и более
Отдельные облака на высоте 3000 фута

METAR: ZUCK 100600Z 09002MPS 020V130 9999 SCT030 08/02 Q1024 NOSIG

Время: 14:50 (06:50 UTC)

Прогноз

Эта сводка был подготовлена 3 часа и 48 минут назад, в 03:02 UTC
Прогноз действительный с 10-го 06 UTC до 11-го 06 UTC
Ветер 6 Узел от северо-восточный
Видимость: 6000 м
Отдельные облака на высоте 4000 фута

TAF: ZUCK 100302Z 1006/1106 04003MPS 6000 SCT040 TX08/1008Z TN03/1023Z

Метеонаблюдения и прогнозы для более 4000 аэропортов (сводки METAR и TAF).

Имеющиеся станции представлены на карте желтыми и красными точками.

Чтобы увидеть название станции, наведите на нее мышь.

Затем щелкните, чтобы увидеть метеонаблюдения и метеопрогнозы.

Управление картой: чтобы увеличить масштаб, щелкните зеленые кнопки с черным крестиком; чтобы уменьшить масштаб, щелкните зеленую кнопку с тире; для просмотра соседних карт щелкайте зеленые стрелки.


METAR-TAF: